Lake View, NY (14085)

11:10 AM EST on January 20, 2017 (GMT -0500)
Old Jennings Road | | Change Station

Elev 780 ft 42.67 °N, 78.87 °W | Updated 8 minutes ago

Overcast
Overcast
34.5 °F
Feels Like 30 °F
N
5.0
Wind Variable Wind from SSW
Gusts 14.3 mph

Today
High -- | Low -- °F
--% Chance of Precip.
Yesterday
High -- | Low -- °F
Precip. -- in
Pressure 29.80 in
Visibility 10.0 miles
Clouds Few 5000 ft
Few 8000 ft
Few 11000 ft
Mostly Cloudy 15000 ft
Overcast 19000 ft
Windchill 30 °F
Dew Point 25 °F
Humidity 68%
Rainfall 0.00 in
Snow Depth Not available.
7:40 AM 5:13 PM
Last Quarter, 43% visible
METAR KBUF 201554Z 05003KT 10SM FEW050 FEW080 FEW110 BKN150 OVC190 04/01 A2977 RMK AO2 SLP089 VIRGA DSNT SE-SW-W T00390011
Pressure 29.80 in
Visibility 10.0 miles
Clouds Few 5000 ft
Few 8000 ft
Few 11000 ft
Mostly Cloudy 15000 ft
Overcast 19000 ft
Windchill 30 °F
Dew Point 25 °F
Humidity 68%
Rainfall 0.00 in
Snow Depth Not available.
7:40 AM 5:13 PM
Last Quarter, 43% visible
METAR KBUF 201554Z 05003KT 10SM FEW050 FEW080 FEW110 BKN150 OVC190 04/01 A2977 RMK AO2 SLP089 VIRGA DSNT SE-SW-W T00390011

Get Your Daily Forecast Email!

Thanks for signing up!

Be on the lookout for a verification email in your inbox.

You'll start receiving the daily forecast at 8 AM.

×

10-Day Weather Forecast

Almanac

Astronomy

Jan. 20, 2017 Rise Set
Actual Time
Civil Twilight
Nautical Twilight
Astronomical Twilight
Moon
Length of Visible Light
Length of Day
Tomorrow will be .
, % of the Moon is Illuminated

Today's Extremes

State Highs State Lows

Community

WunderPhotos

Upload Photos

1,962,540 photos uploaded!

WunderBlog® & News

Nearby

Air Quality

  Air Quality AQ Index Pollutant
Not available.

Snow Depth

Station Depth Elevation

Earthquake Activity

City Distance Mag. Time & Date
Minimum magnitude displayed is 2.5.

Coastal Water Temperatures

Place Temperature

Stations

Nearby Weather Stations

Station Location Temp. Windchill Dew Point Humidity Wind Precip. Elev Updated Type
                   

Watches & Warnings

There are currently no watches in effect.